This is the latest recevied weather packets stored in our database for station/object IU5GBO-13. If no packets are shown the sender has not sent any weather packets the latest 10 day(s).
| Time | Temp. | Humidity | Pressure | Rain* | Wind** | Luminosity | Snow |
|---|---|---|---|---|---|---|---|
| 1777962378 | 16.67° C | 87% | 1015.2 hPa | - | - | - | - |
| 1777961778 | 16.67° C | 87% | 1015.2 hPa | - | - | - | - |
| 1777961178 | 16.67° C | 87% | 1015 hPa | - | - | - | - |
| 1777960578 | 16.67° C | 87% | 1014.9 hPa | - | - | - | - |
| 1777959978 | 16.11° C | 88% | 1014.7 hPa | - | - | - | - |
| 1777959602 | 16.11° C | 88% | 1014.7 hPa | - | - | - | - |
| 1777958778 | 16.11° C | 88% | 1014.6 hPa | - | - | - | - |
| 1777958178 | 16.11° C | 88% | 1014.6 hPa | - | - | - | - |
| 1777957578 | 16.11° C | 88% | 1014.7 hPa | - | - | - | - |
| 1777956978 | 16.11° C | 89% | 1014.8 hPa | - | - | - | - |
| 1777956378 | 16.11° C | 89% | 1014.6 hPa | - | - | - | - |
| 1777955778 | 16.11° C | 89% | 1014.5 hPa | - | - | - | - |
| 1777955178 | 16.11° C | 89% | 1014.4 hPa | - | - | - | - |
| 1777954578 | 16.11° C | 89% | 1014.4 hPa | - | - | - | - |
| 1777953978 | 16.11° C | 89% | 1014.4 hPa | - | - | - | - |
| 1777953378 | 15.56° C | 88% | 1014.5 hPa | - | - | - | - |
| 1777943178 | 14.44° C | 88% | 1015.9 hPa | - | - | - | - |
| 1777941378 | 14.44° C | 87% | 1016.3 hPa | - | - | - | - |
| 1777940178 | 14.44° C | 86% | 1016.7 hPa | - | - | - | - |
| 1777935978 | 15.56° C | 76% | 1017.6 hPa | - | - | - | - |
| 1777935378 | 16.11° C | 74% | 1017.7 hPa | - | - | - | - |
| 1777933578 | 16.67° C | 71% | 1017.8 hPa | - | - | - | - |
| 1777932978 | 16.67° C | 72% | 1018.1 hPa | - | - | - | - |
| 1777931778 | 16.11° C | 72% | 1018.2 hPa | - | - | - | - |
| 1777929978 | 16.11° C | 73% | 1018.3 hPa | - | - | - | - |
* Rain since midnight (hover to see other rain measurements)
** Current wind speed in m/s (hover to see current wind gust speed)